createdAt,value
2022-08-19T00:01:39.498Z,100.00
2022-08-19T00:04:41.343Z,100.00
2022-08-19T00:07:44.655Z,100.00
2022-08-19T00:10:46.936Z,100.00
2022-08-19T00:13:51.173Z,100.00
2022-08-19T00:16:55.582Z,100.00
2022-08-19T00:19:57.397Z,100.00
2022-08-19T00:22:59.106Z,100.00
2022-08-19T00:26:00.771Z,100.00
2022-08-19T00:29:02.874Z,100.00
2022-08-19T00:32:05.499Z,100.00
2022-08-19T00:35:07.869Z,100.00
2022-08-19T00:38:09.545Z,100.00
2022-08-19T00:41:15.551Z,100.00
2022-08-19T00:44:21.023Z,100.00
2022-08-19T00:47:24.668Z,100.00
2022-08-19T00:50:28.945Z,100.00
2022-08-19T00:53:32.750Z,100.00
2022-08-19T00:56:35.128Z,100.00
2022-08-19T01:00:00.356Z,100.00
2022-08-19T01:03:01.170Z,100.00
2022-08-19T01:06:03.411Z,100.00
2022-08-19T01:09:06.182Z,100.00
2022-08-19T01:12:08.638Z,100.00
2022-08-19T01:15:13.275Z,100.00
2022-08-19T01:18:17.821Z,100.00
2022-08-19T01:21:28.941Z,100.00
2022-08-19T01:24:31.745Z,100.00
2022-08-19T01:27:47.903Z,100.00
2022-08-19T01:30:51.306Z,100.00
2022-08-19T01:33:55.554Z,100.00
2022-08-19T01:36:57.304Z,100.00
2022-08-19T01:39:59.091Z,100.00
2022-08-19T01:43:01.393Z,100.00
2022-08-19T01:46:04.497Z,100.00
2022-08-19T01:49:07.480Z,100.00
2022-08-19T01:52:09.221Z,100.00
2022-08-19T01:55:15.836Z,100.00
2022-08-19T01:58:21.960Z,100.00
2022-08-19T02:01:23.590Z,100.00
2022-08-19T02:04:29.393Z,100.00
2022-08-19T02:07:31.119Z,100.00
2022-08-19T02:10:33.193Z,100.00
2022-08-19T02:13:35.781Z,100.00
2022-08-19T02:16:38.329Z,100.00
2022-08-19T02:19:41.091Z,100.00
2022-08-19T02:22:43.511Z,100.00
2022-08-19T02:25:48.876Z,100.00
2022-08-19T02:28:50.593Z,100.00
2022-08-19T02:31:52.633Z,100.00
2022-08-19T02:34:54.419Z,100.00
2022-08-19T02:38:14.588Z,100.00
2022-08-19T02:41:23.888Z,100.00
2022-08-19T05:29:46.723Z,100.00
2022-08-19T05:32:54.024Z,100.00
2022-08-19T05:36:06.126Z,100.00
2022-08-19T05:39:17.907Z,100.00
2022-08-19T05:42:21.346Z,100.00
2022-08-19T05:45:25.923Z,100.00
2022-08-19T05:48:28.244Z,100.00
2022-08-19T05:51:36.117Z,100.00
2022-08-19T05:54:43.828Z,100.00
2022-08-19T05:57:45.815Z,100.00
2022-08-19T06:00:47.944Z,100.00
2022-08-19T06:03:52.237Z,100.00
2022-08-19T06:07:01.378Z,100.00
2022-08-19T06:10:22.365Z,100.00
2022-08-19T06:13:37.167Z,100.00
2022-08-19T06:16:44.898Z,100.00
2022-08-19T06:20:05.244Z,100.00
2022-08-19T06:23:19.089Z,100.00
2022-08-19T06:27:09.166Z,100.00
2022-08-19T06:30:28.479Z,100.00
2022-08-19T06:33:39.971Z,100.00
2022-08-19T06:36:45.494Z,100.00
2022-08-19T06:39:50.875Z,100.00
2022-08-19T06:43:03.944Z,100.00
2022-08-19T06:46:17.482Z,100.00
2022-08-19T06:49:22.052Z,100.00
2022-08-19T06:52:36.549Z,100.00
2022-08-19T06:55:39.054Z,100.00
2022-08-19T06:58:42.791Z,100.00
2022-08-19T07:01:51.311Z,100.00
2022-08-19T07:04:55.149Z,100.00
2022-08-19T07:08:04.752Z,100.00
2022-08-19T07:11:11.244Z,100.00
2022-08-19T07:14:19.104Z,99.38
2022-08-19T07:17:25.111Z,99.36
2022-08-19T07:20:28.498Z,98.59
2022-08-19T07:23:30.696Z,98.28
2022-08-19T07:26:39.863Z,98.11
2022-08-19T07:29:44.278Z,97.59
2022-08-19T07:32:46.206Z,96.89
2022-08-19T07:35:49.821Z,99.00
2022-08-19T07:38:52.766Z,97.61
2022-08-19T07:41:56.473Z,97.37
2022-08-19T07:44:59.654Z,95.27
2022-08-19T07:48:02.176Z,94.87
2022-08-19T07:51:09.212Z,93.89
2022-08-19T07:54:18.622Z,92.57
2022-08-19T07:57:25.347Z,92.48
2022-08-19T08:00:32.078Z,90.54
2022-08-19T08:03:54.423Z,89.17
2022-08-19T08:07:14.769Z,88.80
2022-08-19T08:10:21.157Z,89.31
2022-08-19T08:13:24.476Z,88.77
2022-08-19T08:16:31.143Z,88.38
2022-08-19T08:19:34.160Z,87.67
2022-08-19T08:22:54.673Z,86.08
2022-08-19T08:25:59.261Z,83.84
2022-08-19T08:29:01.024Z,83.75
2022-08-19T08:32:03.022Z,83.80
2022-08-19T08:35:11.319Z,83.39
2022-08-19T08:38:13.362Z,83.62
2022-08-19T08:41:50.211Z,81.89
2022-08-19T08:45:14.668Z,82.22
2022-08-19T08:48:28.147Z,81.21
2022-08-19T08:51:35.951Z,77.97
2022-08-19T08:54:55.031Z,77.18
2022-08-19T08:58:46.174Z,75.78
2022-08-19T09:01:47.938Z,77.33
2022-08-19T09:04:49.896Z,75.77
2022-08-19T09:07:59.566Z,76.37
2022-08-19T09:11:07.593Z,76.88
2022-08-19T09:14:40.601Z,73.98
2022-08-19T09:17:40.573Z,73.76
2022-08-19T09:20:43.029Z,73.51
2022-08-19T09:23:44.796Z,73.02
2022-08-19T09:26:52.741Z,71.28
2022-08-19T09:29:55.404Z,72.56
2022-08-19T09:32:57.266Z,71.97
2022-08-19T09:36:10.773Z,70.57
2022-08-19T09:39:16.507Z,70.64
2022-08-19T09:42:29.851Z,70.48
2022-08-19T09:45:33.263Z,70.89
2022-08-19T09:48:35.019Z,70.65
2022-08-19T09:51:36.833Z,69.19
2022-08-19T09:54:39.948Z,68.83
2022-08-19T09:57:45.900Z,70.42
2022-08-19T10:00:51.011Z,67.83
2022-08-19T10:03:55.084Z,65.95
2022-08-19T10:06:57.149Z,65.30
2022-08-19T10:09:59.971Z,66.84
2022-08-19T10:13:01.687Z,63.61
2022-08-19T10:16:07.255Z,65.18
2022-08-19T10:19:09.578Z,63.91
2022-08-19T10:22:15.343Z,63.83
2022-08-19T10:25:17.633Z,64.01
2022-08-19T10:28:19.677Z,63.01
2022-08-19T10:32:02.147Z,64.65
2022-08-19T10:34:48.471Z,66.69
2022-08-19T10:37:57.287Z,67.85
2022-08-19T10:41:14.519Z,66.72
2022-08-19T10:44:18.001Z,66.94
2022-08-19T10:47:25.759Z,66.08
2022-08-19T10:50:46.616Z,65.60
2022-08-19T10:53:49.640Z,67.24
2022-08-19T10:56:53.881Z,66.71
2022-08-19T10:59:56.971Z,70.33
2022-08-19T11:02:58.602Z,71.31
2022-08-19T11:06:02.125Z,71.19
2022-08-19T11:09:04.300Z,71.25
2022-08-19T11:12:06.306Z,72.10
2022-08-19T11:15:12.082Z,71.33
2022-08-19T11:18:13.717Z,71.49
2022-08-19T11:21:18.400Z,71.24
2022-08-19T11:24:23.457Z,71.46
2022-08-19T11:27:25.162Z,70.86
2022-08-19T11:30:26.776Z,69.99
2022-08-19T11:33:28.451Z,69.16
2022-08-19T11:36:31.537Z,68.35
2022-08-19T11:39:35.373Z,64.05
2022-08-19T11:42:55.594Z,62.54
2022-08-19T11:45:58.493Z,62.32
2022-08-19T11:49:01.711Z,62.39
2022-08-19T11:52:03.755Z,63.78
2022-08-19T11:55:06.380Z,61.47
2022-08-19T11:58:08.750Z,61.27
2022-08-19T12:01:22.970Z,61.68
2022-08-19T12:04:24.652Z,61.67
2022-08-19T12:07:26.460Z,60.57
2022-08-19T12:10:28.109Z,60.59
2022-08-19T12:13:31.742Z,58.67
2022-08-19T12:16:34.353Z,59.04
2022-08-19T12:19:38.486Z,56.61
2022-08-19T12:22:42.307Z,55.79
2022-08-19T12:25:52.528Z,56.35
2022-08-19T12:28:54.745Z,55.67
2022-08-19T12:32:02.311Z,53.57
2022-08-19T12:35:08.176Z,54.79
2022-08-19T12:38:10.023Z,54.52
2022-08-19T12:41:14.878Z,53.30
2022-08-19T12:44:17.059Z,52.63
2022-08-19T12:47:22.048Z,52.14
2022-08-19T12:50:23.794Z,52.72
2022-08-19T12:53:26.164Z,54.89
2022-08-19T12:56:28.422Z,56.56
2022-08-19T12:59:29.993Z,54.89
2022-08-19T13:02:33.140Z,55.51
2022-08-19T13:05:40.744Z,54.74
2022-08-19T13:08:42.771Z,54.45
2022-08-19T13:11:48.084Z,54.13
2022-08-19T13:14:51.010Z,54.90
2022-08-19T13:17:54.738Z,53.30
2022-08-19T13:20:57.426Z,53.41
2022-08-19T13:23:59.502Z,53.17
2022-08-19T13:27:02.037Z,53.85
2022-08-19T13:30:23.595Z,56.38
2022-08-19T13:33:26.672Z,55.94
2022-08-19T13:36:28.394Z,56.67
2022-08-19T13:39:31.549Z,55.13
2022-08-19T13:42:33.368Z,56.04
2022-08-19T13:45:35.441Z,56.38
2022-08-19T13:48:37.139Z,56.14
2022-08-19T13:51:40.724Z,56.01
2022-08-19T13:54:44.797Z,56.64
2022-08-19T13:57:46.857Z,58.71
2022-08-19T14:00:49.272Z,60.53
2022-08-19T14:03:51.339Z,60.30
2022-08-19T14:06:52.999Z,63.15
2022-08-19T14:09:54.659Z,61.91
2022-08-19T14:12:59.304Z,63.65
2022-08-19T14:16:01.108Z,70.58
2022-08-19T14:19:02.831Z,76.88
2022-08-19T14:22:05.532Z,78.41
2022-08-19T14:25:13.098Z,79.49
2022-08-19T14:28:14.813Z,77.58
2022-08-19T14:31:20.297Z,76.21
2022-08-19T14:34:23.229Z,79.51
2022-08-19T14:37:25.129Z,80.69
2022-08-19T14:40:28.887Z,79.85
2022-08-19T14:43:30.664Z,78.67
2022-08-19T14:46:32.348Z,78.44
2022-08-19T14:53:15.003Z,78.54
2022-08-19T14:56:27.256Z,76.42
2022-08-19T14:59:35.203Z,76.38
2022-08-19T15:02:45.894Z,77.28
2022-08-19T15:05:50.386Z,74.63
2022-08-19T15:08:52.931Z,74.92
2022-08-19T15:11:54.758Z,72.68
2022-08-19T15:14:56.987Z,67.45
2022-08-19T15:18:03.376Z,67.80
2022-08-19T15:21:05.496Z,71.28
2022-08-19T15:24:07.539Z,67.97
2022-08-19T15:27:32.727Z,72.94
2022-08-19T15:30:34.694Z,71.88
2022-08-19T15:33:38.048Z,72.53
2022-08-19T15:36:40.277Z,72.47
2022-08-19T15:39:42.658Z,74.93
2022-08-19T15:42:53.459Z,71.43
2022-08-19T15:45:55.252Z,72.55
2022-08-19T15:49:00.314Z,74.35
2022-08-19T15:52:02.561Z,68.20
2022-08-19T15:55:09.258Z,69.22
2022-08-19T15:58:36.511Z,68.88
2022-08-19T16:01:57.045Z,66.35
2022-08-19T16:05:17.837Z,54.90
2022-08-19T16:08:20.446Z,54.15
2022-08-19T16:11:29.298Z,55.86
2022-08-19T16:14:34.927Z,56.18
2022-08-19T16:17:37.297Z,56.24
2022-08-19T16:20:39.213Z,55.78
2022-08-19T16:23:41.921Z,56.19
2022-08-19T16:26:45.381Z,56.21
2022-08-19T16:29:47.346Z,54.62
2022-08-19T16:32:49.561Z,54.67
2022-08-19T16:35:57.805Z,55.54
2022-08-19T16:39:18.421Z,56.11
2022-08-19T16:42:21.107Z,56.31
2022-08-19T16:45:23.221Z,56.02
2022-08-19T16:48:29.922Z,56.96
2022-08-19T16:51:33.870Z,57.89
2022-08-19T16:54:37.761Z,58.71
2022-08-19T16:57:39.951Z,59.80
2022-08-19T17:00:41.742Z,61.90
2022-08-19T17:03:43.632Z,63.25
2022-08-19T17:06:45.618Z,63.14
2022-08-19T17:09:47.275Z,63.71
2022-08-19T17:12:54.879Z,63.82
2022-08-19T17:15:56.911Z,63.72
2022-08-19T17:19:01.884Z,63.32
2022-08-19T17:22:03.638Z,63.66
2022-08-19T17:25:05.710Z,63.16
2022-08-19T17:28:16.629Z,63.66
2022-08-19T17:31:21.318Z,64.11
2022-08-19T17:34:23.043Z,64.12
2022-08-19T17:37:24.814Z,64.04
2022-08-19T17:40:29.149Z,64.67
2022-08-19T17:43:36.533Z,65.58
2022-08-19T17:46:41.174Z,66.58
2022-08-19T17:49:43.030Z,67.20
2022-08-19T17:52:44.801Z,67.43
2022-08-19T17:55:48.084Z,67.75
2022-08-19T17:59:00.084Z,67.01
2022-08-19T18:02:05.310Z,67.47
2022-08-19T18:05:07.179Z,67.35
2022-08-19T18:08:10.627Z,67.10
2022-08-19T18:11:12.662Z,67.54
2022-08-19T18:14:15.287Z,67.19
2022-08-19T18:17:19.321Z,67.50
2022-08-19T18:20:21.462Z,67.98
2022-08-19T18:23:44.675Z,67.73
2022-08-19T18:26:48.138Z,69.75
2022-08-19T18:29:50.056Z,69.11
2022-08-19T18:32:53.386Z,68.25
2022-08-19T18:35:55.094Z,67.65
2022-08-19T18:39:15.362Z,68.72
2022-08-19T18:42:37.652Z,68.80
2022-08-19T18:46:00.172Z,69.52
2022-08-19T18:49:05.405Z,69.76
2022-08-19T18:52:07.559Z,69.09
2022-08-19T18:55:09.552Z,69.12
2022-08-19T18:58:11.351Z,70.29
2022-08-19T19:01:19.222Z,68.75
2022-08-19T19:04:24.466Z,70.64
2022-08-19T19:07:27.391Z,70.43
2022-08-19T19:10:29.092Z,70.84
2022-08-19T19:13:33.118Z,70.44
2022-08-19T19:16:34.727Z,70.32
2022-08-19T19:19:36.583Z,70.84
2022-08-19T19:22:38.552Z,71.41
2022-08-19T19:25:49.904Z,71.86
2022-08-19T19:28:52.917Z,72.21
2022-08-19T19:31:56.131Z,72.92
2022-08-19T19:34:57.954Z,72.45
2022-08-19T19:37:59.833Z,72.90
2022-08-19T19:41:02.239Z,73.25
2022-08-19T19:44:30.597Z,73.44
2022-08-19T19:47:28.273Z,73.21
2022-08-19T19:50:30.256Z,73.51
2022-08-19T19:53:34.347Z,74.00
2022-08-19T19:56:36.330Z,76.06
2022-08-19T19:59:38.152Z,75.21
2022-08-19T20:02:50.501Z,75.54
2022-08-19T20:05:52.685Z,76.06
2022-08-19T20:09:28.535Z,75.20
2022-08-19T20:12:41.066Z,75.74
2022-08-19T20:15:46.813Z,76.12
2022-08-19T20:18:48.931Z,76.80
2022-08-19T20:21:51.537Z,76.58
2022-08-19T20:24:53.884Z,76.07
2022-08-19T20:32:16.625Z,77.40
2022-08-19T20:35:21.448Z,78.43
2022-08-19T20:38:23.538Z,78.41
2022-08-19T20:41:25.640Z,78.45
2022-08-19T20:44:27.427Z,79.60
2022-08-19T20:47:32.899Z,80.24
2022-08-19T20:50:36.104Z,79.74
2022-08-19T20:53:38.789Z,78.04
2022-08-19T20:56:40.666Z,80.02
2022-08-19T20:59:42.431Z,79.18
2022-08-19T21:02:44.268Z,80.25
2022-08-19T21:05:47.559Z,79.86
2022-08-19T21:08:49.491Z,78.58
2022-08-19T21:11:54.032Z,77.59
2022-08-19T21:14:55.788Z,78.56
2022-08-19T21:17:58.410Z,81.44
2022-08-19T21:21:00.276Z,81.93
2022-08-19T21:24:02.215Z,80.29
2022-08-19T21:27:04.073Z,78.69
2022-08-19T21:30:07.440Z,80.59
2022-08-19T21:33:10.681Z,79.46
2022-08-19T21:36:12.613Z,80.40
2022-08-19T21:39:14.646Z,81.71
2022-08-19T21:42:16.774Z,79.37
2022-08-19T21:45:19.569Z,78.51
2022-08-19T21:48:21.404Z,80.29
2022-08-19T21:51:23.397Z,79.82
2022-08-19T21:54:25.427Z,80.65
2022-08-19T21:57:27.352Z,81.91
2022-08-19T22:00:32.201Z,80.52
2022-08-19T22:03:35.754Z,79.61
2022-08-19T22:06:37.630Z,79.96
2022-08-19T22:09:40.962Z,81.15
2022-08-19T22:12:47.338Z,81.58
2022-08-19T22:15:55.151Z,82.50
2022-08-19T22:18:57.497Z,82.27
2022-08-19T22:21:59.259Z,82.66
2022-08-19T22:25:09.750Z,82.42
2022-08-19T22:28:13.986Z,81.71
2022-08-19T22:31:16.179Z,81.61
2022-08-19T22:34:18.254Z,80.13
2022-08-19T22:37:20.516Z,79.36
2022-08-19T22:40:22.287Z,80.90
2022-08-19T22:43:28.640Z,80.72
2022-08-19T22:46:33.798Z,81.85
2022-08-19T22:49:35.652Z,81.49
2022-08-19T22:52:37.587Z,81.34
2022-08-19T22:55:39.380Z,81.34
2022-08-19T22:58:42.374Z,80.83
2022-08-19T23:01:46.337Z,81.69
2022-08-19T23:04:48.080Z,81.24
2022-08-19T23:07:52.807Z,80.35
2022-08-19T23:10:54.766Z,80.75
2022-08-19T23:13:56.543Z,81.50
2022-08-19T23:16:59.164Z,81.80
2022-08-19T23:20:01.664Z,82.44
2022-08-19T23:23:06.726Z,81.66
2022-08-19T23:26:11.704Z,82.28
2022-08-19T23:29:32.766Z,82.11
2022-08-19T23:32:35.689Z,81.01
2022-08-19T23:35:38.384Z,81.21
2022-08-19T23:38:43.428Z,82.66
2022-08-19T23:41:45.277Z,83.44
2022-08-19T23:44:52.359Z,83.89
2022-08-19T23:47:55.492Z,84.41
2022-08-19T23:50:58.669Z,84.40
2022-08-19T23:54:00.492Z,84.66
2022-08-19T23:57:02.216Z,84.95
